sensor_id;sensor_type;location;lat;lon;timestamp;pressure;altitude;pressure_sealevel;temperature;humidity
19023;BME280;35226;48.606;8.858;2023-03-01T00:01:29;96914.69;;;-2.26;100.00
19023;BME280;35226;48.606;8.858;2023-03-01T00:03:55;96904.88;;;-2.30;100.00
19023;BME280;35226;48.606;8.858;2023-03-01T00:06:21;96909.41;;;-2.34;100.00
19023;BME280;35226;48.606;8.858;2023-03-01T00:08:48;96911.69;;;-2.36;100.00
19023;BME280;35226;48.606;8.858;2023-03-01T00:13:43;96910.00;;;-2.41;100.00
19023;BME280;35226;48.606;8.858;2023-03-01T00:16:15;96908.69;;;-2.47;100.00
19023;BME280;35226;48.606;8.858;2023-03-01T00:18:41;96909.81;;;-2.48;100.00
19023;BME280;35226;48.606;8.858;2023-03-01T00:21:06;96907.00;;;-2.51;100.00
19023;BME280;35226;48.606;8.858;2023-03-01T00:23:34;96911.53;;;-2.55;100.00
19023;BME280;35226;48.606;8.858;2023-03-01T00:25:59;96912.56;;;-2.60;100.00
19023;BME280;35226;48.606;8.858;2023-03-01T00:28:25;96909.84;;;-2.60;100.00
19023;BME280;35226;48.606;8.858;2023-03-01T00:30:51;96908.28;;;-2.61;100.00
19023;BME280;35226;48.606;8.858;2023-03-01T00:33:17;96910.53;;;-2.63;100.00
19023;BME280;35226;48.606;8.858;2023-03-01T00:35:43;96902.41;;;-2.63;100.00
19023;BME280;35226;48.606;8.858;2023-03-01T00:38:08;96902.00;;;-2.65;100.00
19023;BME280;35226;48.606;8.858;2023-03-01T00:40:35;96901.09;;;-2.69;100.00
19023;BME280;35226;48.606;8.858;2023-03-01T00:43:01;96890.16;;;-2.73;100.00
19023;BME280;35226;48.606;8.858;2023-03-01T00:45:27;96895.03;;;-2.78;100.00
19023;BME280;35226;48.606;8.858;2023-03-01T00:47:53;96894.69;;;-2.77;100.00
19023;BME280;35226;48.606;8.858;2023-03-01T00:50:19;96886.13;;;-2.79;100.00
19023;BME280;35226;48.606;8.858;2023-03-01T00:52:45;96896.16;;;-2.79;100.00
19023;BME280;35226;48.606;8.858;2023-03-01T00:55:11;96895.47;;;-2.76;100.00
19023;BME280;35226;48.606;8.858;2023-03-01T00:57:37;96893.22;;;-2.74;100.00
19023;BME280;35226;48.606;8.858;2023-03-01T01:00:06;96894.00;;;-2.74;100.00
19023;BME280;35226;48.606;8.858;2023-03-01T01:02:33;96886.59;;;-2.77;100.00
19023;BME280;35226;48.606;8.858;2023-03-01T01:04:59;96884.88;;;-2.81;100.00
19023;BME280;35226;48.606;8.858;2023-03-01T01:07:25;96885.34;;;-2.79;100.00
19023;BME280;35226;48.606;8.858;2023-03-01T01:09:51;96876.09;;;-2.78;100.00
19023;BME280;35226;48.606;8.858;2023-03-01T01:12:16;96879.16;;;-2.80;100.00
19023;BME280;35226;48.606;8.858;2023-03-01T01:14:42;96881.84;;;-2.80;100.00
19023;BME280;35226;48.606;8.858;2023-03-01T01:17:08;96877.91;;;-2.82;100.00
19023;BME280;35226;48.606;8.858;2023-03-01T01:19:34;96877.13;;;-2.83;100.00
19023;BME280;35226;48.606;8.858;2023-03-01T01:21:59;96874.31;;;-2.86;100.00
19023;BME280;35226;48.606;8.858;2023-03-01T01:24:25;96876.13;;;-2.90;100.00
19023;BME280;35226;48.606;8.858;2023-03-01T01:26:51;96869.47;;;-2.93;100.00
19023;BME280;35226;48.606;8.858;2023-03-01T01:29:16;96867.81;;;-2.97;100.00
19023;BME280;35226;48.606;8.858;2023-03-01T01:31:43;96863.88;;;-3.00;100.00
19023;BME280;35226;48.606;8.858;2023-03-01T01:34:14;96857.59;;;-3.04;100.00
19023;BME280;35226;48.606;8.858;2023-03-01T01:36:40;96854.09;;;-3.05;100.00
19023;BME280;35226;48.606;8.858;2023-03-01T01:39:06;96857.94;;;-3.06;100.00
19023;BME280;35226;48.606;8.858;2023-03-01T01:41:32;96855.91;;;-3.09;100.00
19023;BME280;35226;48.606;8.858;2023-03-01T01:49:48;96849.97;;;-3.26;100.00
19023;BME280;35226;48.606;8.858;2023-03-01T01:52:27;96850.66;;;-3.29;100.00
19023;BME280;35226;48.606;8.858;2023-03-01T01:55:01;96855.25;;;-3.30;100.00
19023;BME280;35226;48.606;8.858;2023-03-01T01:57:58;96860.13;;;-3.36;100.00
19023;BME280;35226;48.606;8.858;2023-03-01T02:00:28;96855.28;;;-3.42;100.00
19023;BME280;35226;48.606;8.858;2023-03-01T02:02:57;96852.94;;;-3.44;100.00
19023;BME280;35226;48.606;8.858;2023-03-01T02:05:29;96850.66;;;-3.42;100.00
19023;BME280;35226;48.606;8.858;2023-03-01T02:07:59;96850.00;;;-3.39;100.00
19023;BME280;35226;48.606;8.858;2023-03-01T02:10:25;96838.06;;;-3.38;100.00
19023;BME280;35226;48.606;8.858;2023-03-01T02:12:52;96842.34;;;-3.37;100.00
19023;BME280;35226;48.606;8.858;2023-03-01T02:15:18;96844.72;;;-3.35;100.00
19023;BME280;35226;48.606;8.858;2023-03-01T02:17:44;96834.22;;;-3.37;100.00
19023;BME280;35226;48.606;8.858;2023-03-01T02:22:59;96835.56;;;-3.43;100.00
19023;BME280;35226;48.606;8.858;2023-03-01T02:26:08;96828.16;;;-3.46;100.00
19023;BME280;35226;48.606;8.858;2023-03-01T02:30:46;96831.31;;;-3.44;100.00
19023;BME280;35226;48.606;8.858;2023-03-01T02:33:33;96824.34;;;-3.45;100.00
19023;BME280;35226;48.606;8.858;2023-03-01T02:36:14;96825.94;;;-3.44;100.00
19023;BME280;35226;48.606;8.858;2023-03-01T02:38:41;96811.72;;;-3.41;100.00
19023;BME280;35226;48.606;8.858;2023-03-01T02:41:08;96817.25;;;-3.37;100.00
19023;BME280;35226;48.606;8.858;2023-03-01T02:43:35;96806.88;;;-3.35;100.00
19023;BME280;35226;48.606;8.858;2023-03-01T02:46:12;96806.97;;;-3.31;100.00
19023;BME280;35226;48.606;8.858;2023-03-01T02:48:41;96805.63;;;-3.25;100.00
19023;BME280;35226;48.606;8.858;2023-03-01T02:54:10;96808.06;;;-3.20;100.00
19023;BME280;35226;48.606;8.858;2023-03-01T02:56:39;96797.28;;;-3.20;100.00
19023;BME280;35226;48.606;8.858;2023-03-01T02:59:06;96792.75;;;-3.16;100.00
19023;BME280;35226;48.606;8.858;2023-03-01T03:01:33;96787.44;;;-3.13;100.00
19023;BME280;35226;48.606;8.858;2023-03-01T03:04:09;96785.97;;;-3.10;100.00
19023;BME280;35226;48.606;8.858;2023-03-01T03:06:36;96795.44;;;-3.04;100.00
19023;BME280;35226;48.606;8.858;2023-03-01T03:09:02;96783.38;;;-3.07;100.00
19023;BME280;35226;48.606;8.858;2023-03-01T03:11:29;96781.66;;;-2.99;100.00
19023;BME280;35226;48.606;8.858;2023-03-01T03:13:56;96784.72;;;-3.01;100.00
19023;BME280;35226;48.606;8.858;2023-03-01T03:16:22;96783.69;;;-2.96;100.00
19023;BME280;35226;48.606;8.858;2023-03-01T03:18:48;96779.41;;;-2.97;100.00
19023;BME280;35226;48.606;8.858;2023-03-01T03:21:14;96777.38;;;-3.00;100.00
19023;BME280;35226;48.606;8.858;2023-03-01T03:23:39;96778.63;;;-2.97;100.00
19023;BME280;35226;48.606;8.858;2023-03-01T03:26:05;96772.44;;;-2.98;100.00
19023;BME280;35226;48.606;8.858;2023-03-01T03:28:32;96770.84;;;-2.99;100.00
19023;BME280;35226;48.606;8.858;2023-03-01T03:30:59;96768.16;;;-2.99;100.00
19023;BME280;35226;48.606;8.858;2023-03-01T03:33:29;96768.69;;;-2.93;100.00
19023;BME280;35226;48.606;8.858;2023-03-01T03:36:01;96773.41;;;-2.90;100.00
19023;BME280;35226;48.606;8.858;2023-03-01T03:38:26;96770.03;;;-2.87;100.00
19023;BME280;35226;48.606;8.858;2023-03-01T03:41:02;96772.38;;;-2.86;100.00
19023;BME280;35226;48.606;8.858;2023-03-01T03:43:31;96771.94;;;-2.88;100.00
19023;BME280;35226;48.606;8.858;2023-03-01T03:45:57;96776.28;;;-2.83;100.00
19023;BME280;35226;48.606;8.858;2023-03-01T03:48:23;96766.97;;;-2.86;100.00
19023;BME280;35226;48.606;8.858;2023-03-01T03:50:52;96767.41;;;-2.84;100.00
19023;BME280;35226;48.606;8.858;2023-03-01T03:53:19;96753.88;;;-2.84;100.00
19023;BME280;35226;48.606;8.858;2023-03-01T03:55:44;96768.97;;;-2.83;100.00
19023;BME280;35226;48.606;8.858;2023-03-01T03:58:10;96767.06;;;-2.82;100.00
19023;BME280;35226;48.606;8.858;2023-03-01T04:00:42;96765.59;;;-2.80;100.00
19023;BME280;35226;48.606;8.858;2023-03-01T04:03:08;96762.09;;;-2.80;100.00
19023;BME280;35226;48.606;8.858;2023-03-01T04:05:35;96757.13;;;-2.78;100.00
19023;BME280;35226;48.606;8.858;2023-03-01T04:08:01;96758.72;;;-2.77;100.00
19023;BME280;35226;48.606;8.858;2023-03-01T04:10:31;96758.03;;;-2.74;100.00
19023;BME280;35226;48.606;8.858;2023-03-01T04:12:57;96756.53;;;-2.72;100.00
19023;BME280;35226;48.606;8.858;2023-03-01T04:15:24;96759.00;;;-2.67;100.00
19023;BME280;35226;48.606;8.858;2023-03-01T04:17:51;96755.41;;;-2.71;100.00
19023;BME280;35226;48.606;8.858;2023-03-01T04:20:26;96746.94;;;-2.69;100.00
19023;BME280;35226;48.606;8.858;2023-03-01T04:22:57;96751.31;;;-2.65;100.00
19023;BME280;35226;48.606;8.858;2023-03-01T04:25:23;96745.53;;;-2.63;100.00
19023;BME280;35226;48.606;8.858;2023-03-01T04:27:51;96749.81;;;-2.62;100.00
19023;BME280;35226;48.606;8.858;2023-03-01T04:30:17;96746.00;;;-2.61;100.00
19023;BME280;35226;48.606;8.858;2023-03-01T04:32:42;96741.38;;;-2.61;100.00
19023;BME280;35226;48.606;8.858;2023-03-01T04:35:08;96739.44;;;-2.60;100.00
19023;BME280;35226;48.606;8.858;2023-03-01T04:37:34;96742.84;;;-2.63;100.00
19023;BME280;35226;48.606;8.858;2023-03-01T04:40:03;96739.44;;;-2.60;100.00
19023;BME280;35226;48.606;8.858;2023-03-01T04:42:42;96742.94;;;-2.59;100.00
19023;BME280;35226;48.606;8.858;2023-03-01T04:45:08;96740.34;;;-2.56;100.00
19023;BME280;35226;48.606;8.858;2023-03-01T04:47:39;96745.75;;;-2.56;100.00
19023;BME280;35226;48.606;8.858;2023-03-01T04:50:06;96743.72;;;-2.59;100.00
19023;BME280;35226;48.606;8.858;2023-03-01T04:52:32;96736.75;;;-2.60;100.00
19023;BME280;35226;48.606;8.858;2023-03-01T04:54:57;96745.66;;;-2.59;100.00
19023;BME280;35226;48.606;8.858;2023-03-01T04:57:23;96734.84;;;-2.59;100.00
19023;BME280;35226;48.606;8.858;2023-03-01T04:59:48;96741.47;;;-2.57;100.00
19023;BME280;35226;48.606;8.858;2023-03-01T05:02:14;96743.03;;;-2.56;100.00
19023;BME280;35226;48.606;8.858;2023-03-01T05:04:40;96750.78;;;-2.54;100.00
19023;BME280;35226;48.606;8.858;2023-03-01T05:07:05;96739.28;;;-2.51;100.00
19023;BME280;35226;48.606;8.858;2023-03-01T05:09:31;96737.72;;;-2.52;100.00
19023;BME280;35226;48.606;8.858;2023-03-01T05:11:56;96745.13;;;-2.49;100.00
19023;BME280;35226;48.606;8.858;2023-03-01T05:14:22;96737.47;;;-2.47;100.00
19023;BME280;35226;48.606;8.858;2023-03-01T05:16:48;96737.38;;;-2.51;100.00
19023;BME280;35226;48.606;8.858;2023-03-01T05:19:13;96734.03;;;-2.44;100.00
19023;BME280;35226;48.606;8.858;2023-03-01T05:21:43;96734.41;;;-2.46;100.00
19023;BME280;35226;48.606;8.858;2023-03-01T05:24:28;96727.78;;;-2.48;100.00
19023;BME280;35226;48.606;8.858;2023-03-01T05:26:54;96736.41;;;-2.43;100.00
19023;BME280;35226;48.606;8.858;2023-03-01T05:29:22;96736.06;;;-2.41;100.00
19023;BME280;35226;48.606;8.858;2023-03-01T05:32:00;96742.25;;;-2.41;100.00
19023;BME280;35226;48.606;8.858;2023-03-01T05:34:33;96742.81;;;-2.35;100.00
19023;BME280;35226;48.606;8.858;2023-03-01T05:36:58;96743.50;;;-2.38;100.00
19023;BME280;35226;48.606;8.858;2023-03-01T05:39:26;96747.22;;;-2.43;100.00
19023;BME280;35226;48.606;8.858;2023-03-01T05:41:53;96739.91;;;-2.42;100.00
19023;BME280;35226;48.606;8.858;2023-03-01T05:44:19;96744.63;;;-2.39;100.00
19023;BME280;35226;48.606;8.858;2023-03-01T05:46:45;96739.22;;;-2.39;100.00
19023;BME280;35226;48.606;8.858;2023-03-01T05:49:11;96738.09;;;-2.38;100.00
19023;BME280;35226;48.606;8.858;2023-03-01T05:51:39;96736.22;;;-2.34;100.00
19023;BME280;35226;48.606;8.858;2023-03-01T05:54:04;96735.44;;;-2.35;100.00
19023;BME280;35226;48.606;8.858;2023-03-01T05:56:33;96733.19;;;-2.33;100.00
19023;BME280;35226;48.606;8.858;2023-03-01T05:58:59;96731.59;;;-2.34;100.00
19023;BME280;35226;48.606;8.858;2023-03-01T06:01:28;96733.63;;;-2.31;100.00
19023;BME280;35226;48.606;8.858;2023-03-01T06:03:55;96731.25;;;-2.32;100.00
19023;BME280;35226;48.606;8.858;2023-03-01T06:06:21;96747.16;;;-2.31;100.00
19023;BME280;35226;48.606;8.858;2023-03-01T06:08:46;96742.97;;;-2.28;100.00
19023;BME280;35226;48.606;8.858;2023-03-01T06:11:12;96733.00;;;-2.24;100.00
19023;BME280;35226;48.606;8.858;2023-03-01T06:13:37;96735.72;;;-2.24;100.00
19023;BME280;35226;48.606;8.858;2023-03-01T06:16:06;96734.13;;;-2.25;100.00
19023;BME280;35226;48.606;8.858;2023-03-01T06:18:32;96732.94;;;-2.28;100.00
19023;BME280;35226;48.606;8.858;2023-03-01T06:20:58;96726.81;;;-2.25;100.00
19023;BME280;35226;48.606;8.858;2023-03-01T06:23:24;96726.47;;;-2.23;100.00
19023;BME280;35226;48.606;8.858;2023-03-01T06:25:50;96728.38;;;-2.24;100.00
19023;BME280;35226;48.606;8.858;2023-03-01T06:28:19;96725.31;;;-2.22;100.00
19023;BME280;35226;48.606;8.858;2023-03-01T06:30:45;96720.25;;;-2.24;100.00
19023;BME280;35226;48.606;8.858;2023-03-01T06:33:11;96718.88;;;-2.17;100.00
19023;BME280;35226;48.606;8.858;2023-03-01T06:35:36;96720.06;;;-2.15;100.00
19023;BME280;35226;48.606;8.858;2023-03-01T06:38:03;96720.53;;;-2.13;100.00
19023;BME280;35226;48.606;8.858;2023-03-01T06:40:30;96727.59;;;-2.08;100.00
19023;BME280;35226;48.606;8.858;2023-03-01T06:42:57;96724.09;;;-2.09;100.00
19023;BME280;35226;48.606;8.858;2023-03-01T06:45:22;96722.88;;;-2.11;100.00
19023;BME280;35226;48.606;8.858;2023-03-01T06:47:48;96714.75;;;-2.11;100.00
19023;BME280;35226;48.606;8.858;2023-03-01T06:50:14;96719.13;;;-2.07;100.00
19023;BME280;35226;48.606;8.858;2023-03-01T06:52:40;96716.06;;;-2.05;100.00
19023;BME280;35226;48.606;8.858;2023-03-01T06:55:06;96714.66;;;-1.99;100.00
19023;BME280;35226;48.606;8.858;2023-03-01T06:57:32;96716.69;;;-1.96;100.00
19023;BME280;35226;48.606;8.858;2023-03-01T06:59:58;96713.97;;;-1.96;100.00
19023;BME280;35226;48.606;8.858;2023-03-01T07:02:24;96713.69;;;-1.91;100.00
19023;BME280;35226;48.606;8.858;2023-03-01T07:04:50;96717.19;;;-1.91;100.00
19023;BME280;35226;48.606;8.858;2023-03-01T07:07:16;96707.63;;;-1.84;100.00
19023;BME280;35226;48.606;8.858;2023-03-01T07:09:44;96706.16;;;-1.82;100.00
19023;BME280;35226;48.606;8.858;2023-03-01T07:12:10;96706.75;;;-1.73;100.00
19023;BME280;35226;48.606;8.858;2023-03-01T07:14:38;96707.88;;;-1.74;100.00
19023;BME280;35226;48.606;8.858;2023-03-01T07:17:04;96702.19;;;-1.69;100.00
19023;BME280;35226;48.606;8.858;2023-03-01T07:19:29;96702.97;;;-1.68;100.00
19023;BME280;35226;48.606;8.858;2023-03-01T07:21:55;96705.06;;;-1.62;100.00
19023;BME280;35226;48.606;8.858;2023-03-01T07:24:21;96697.50;;;-1.53;100.00
19023;BME280;35226;48.606;8.858;2023-03-01T07:26:51;96700.22;;;-1.53;100.00
19023;BME280;35226;48.606;8.858;2023-03-01T07:29:17;96700.66;;;-1.51;100.00
19023;BME280;35226;48.606;8.858;2023-03-01T07:31:43;96696.38;;;-1.52;100.00
19023;BME280;35226;48.606;8.858;2023-03-01T07:34:09;96699.44;;;-1.53;100.00
19023;BME280;35226;48.606;8.858;2023-03-01T07:36:36;96692.53;;;-1.51;100.00
19023;BME280;35226;48.606;8.858;2023-03-01T07:39:02;96690.31;;;-1.45;100.00
19023;BME280;35226;48.606;8.858;2023-03-01T07:41:29;96694.38;;;-1.35;100.00
19023;BME280;35226;48.606;8.858;2023-03-01T07:43:55;96683.25;;;-1.30;100.00
19023;BME280;35226;48.606;8.858;2023-03-01T07:46:20;96684.19;;;-1.23;100.00
19023;BME280;35226;48.606;8.858;2023-03-01T07:48:46;96682.53;;;-1.27;100.00
19023;BME280;35226;48.606;8.858;2023-03-01T07:51:12;96683.59;;;-1.32;100.00
19023;BME280;35226;48.606;8.858;2023-03-01T07:53:38;96683.47;;;-1.20;100.00
19023;BME280;35226;48.606;8.858;2023-03-01T07:56:05;96677.31;;;-1.17;100.00
19023;BME280;35226;48.606;8.858;2023-03-01T07:58:31;96666.78;;;-1.22;100.00
19023;BME280;35226;48.606;8.858;2023-03-01T08:01:02;96665.41;;;-1.12;100.00
19023;BME280;35226;48.606;8.858;2023-03-01T08:03:28;96664.69;;;-1.09;100.00
19023;BME280;35226;48.606;8.858;2023-03-01T08:05:54;96670.47;;;-1.10;100.00
19023;BME280;35226;48.606;8.858;2023-03-01T08:08:19;96669.09;;;-1.01;100.00
19023;BME280;35226;48.606;8.858;2023-03-01T08:10:45;96667.75;;;-0.91;100.00
19023;BME280;35226;48.606;8.858;2023-03-01T08:13:10;96666.00;;;-0.80;100.00
19023;BME280;35226;48.606;8.858;2023-03-01T08:15:36;96664.47;;;-0.78;100.00
19023;BME280;35226;48.606;8.858;2023-03-01T08:18:01;96662.69;;;-0.70;100.00
19023;BME280;35226;48.606;8.858;2023-03-01T08:20:27;96668.53;;;-0.68;100.00
19023;BME280;35226;48.606;8.858;2023-03-01T08:22:52;96658.63;;;-0.57;100.00
19023;BME280;35226;48.606;8.858;2023-03-01T08:25:18;96654.44;;;-0.54;100.00
19023;BME280;35226;48.606;8.858;2023-03-01T08:27:43;96657.81;;;-0.61;100.00
19023;BME280;35226;48.606;8.858;2023-03-01T08:30:09;96661.59;;;-0.65;100.00
19023;BME280;35226;48.606;8.858;2023-03-01T08:32:39;96663.41;;;-0.50;100.00
19023;BME280;35226;48.606;8.858;2023-03-01T08:35:05;96654.59;;;-0.44;100.00
19023;BME280;35226;48.606;8.858;2023-03-01T08:37:31;96664.41;;;-0.35;100.00
19023;BME280;35226;48.606;8.858;2023-03-01T08:39:59;96663.09;;;-0.22;100.00
19023;BME280;35226;48.606;8.858;2023-03-01T08:42:26;96666.69;;;-0.15;100.00
19023;BME280;35226;48.606;8.858;2023-03-01T08:44:51;96663.81;;;0.01;100.00
19023;BME280;35226;48.606;8.858;2023-03-01T08:47:17;96665.13;;;0.11;100.00
19023;BME280;35226;48.606;8.858;2023-03-01T08:49:42;96651.22;;;0.16;100.00
19023;BME280;35226;48.606;8.858;2023-03-01T08:52:08;96650.19;;;0.24;100.00
19023;BME280;35226;48.606;8.858;2023-03-01T08:54:33;96647.81;;;0.22;100.00
19023;BME280;35226;48.606;8.858;2023-03-01T08:57:01;96643.38;;;0.37;100.00
19023;BME280;35226;48.606;8.858;2023-03-01T08:59:27;96636.94;;;0.52;100.00
19023;BME280;35226;48.606;8.858;2023-03-01T09:01:54;96641.88;;;0.73;100.00
19023;BME280;35226;48.606;8.858;2023-03-01T09:04:20;96644.28;;;0.78;100.00
19023;BME280;35226;48.606;8.858;2023-03-01T09:06:45;96642.31;;;0.79;100.00
19023;BME280;35226;48.606;8.858;2023-03-01T09:09:16;96632.81;;;0.99;100.00
19023;BME280;35226;48.606;8.858;2023-03-01T09:11:43;96631.09;;;1.21;100.00
19023;BME280;35226;48.606;8.858;2023-03-01T09:14:12;96627.91;;;1.11;100.00
19023;BME280;35226;48.606;8.858;2023-03-01T09:16:38;96630.78;;;1.26;100.00
19023;BME280;35226;48.606;8.858;2023-03-01T09:19:03;96622.25;;;1.31;100.00
19023;BME280;35226;48.606;8.858;2023-03-01T09:21:29;96612.63;;;1.40;100.00
19023;BME280;35226;48.606;8.858;2023-03-01T09:23:56;96619.25;;;1.43;100.00
19023;BME280;35226;48.606;8.858;2023-03-01T09:26:23;96610.34;;;1.49;100.00
19023;BME280;35226;48.606;8.858;2023-03-01T09:28:50;96611.28;;;1.64;100.00
19023;BME280;35226;48.606;8.858;2023-03-01T09:31:18;96610.09;;;1.65;100.00
19023;BME280;35226;48.606;8.858;2023-03-01T09:33:46;96608.97;;;1.70;100.00
19023;BME280;35226;48.606;8.858;2023-03-01T09:36:15;96617.25;;;1.84;100.00
19023;BME280;35226;48.606;8.858;2023-03-01T09:38:41;96616.44;;;1.80;100.00
19023;BME280;35226;48.606;8.858;2023-03-01T09:41:36;96610.56;;;1.74;100.00
19023;BME280;35226;48.606;8.858;2023-03-01T09:46:42;96617.56;;;1.75;100.00
19023;BME280;35226;48.606;8.858;2023-03-01T09:49:18;96610.66;;;1.89;100.00
19023;BME280;35226;48.606;8.858;2023-03-01T09:51:55;96613.06;;;2.01;100.00
19023;BME280;35226;48.606;8.858;2023-03-01T09:54:21;96618.47;;;1.97;100.00
19023;BME280;35226;48.606;8.858;2023-03-01T09:57:05;96612.31;;;2.04;100.00
19023;BME280;35226;48.606;8.858;2023-03-01T10:02:51;96606.28;;;2.46;100.00
19023;BME280;35226;48.606;8.858;2023-03-01T10:06:24;96597.41;;;2.67;100.00
19023;BME280;35226;48.606;8.858;2023-03-01T10:10:54;96593.63;;;3.03;100.00
19023;BME280;35226;48.606;8.858;2023-03-01T10:13:33;96595.19;;;3.08;100.00
19023;BME280;35226;48.606;8.858;2023-03-01T10:16:13;96583.94;;;3.30;100.00
19023;BME280;35226;48.606;8.858;2023-03-01T10:18:41;96584.31;;;3.47;100.00
19023;BME280;35226;48.606;8.858;2023-03-01T10:23:39;96578.47;;;3.69;100.00
19023;BME280;35226;48.606;8.858;2023-03-01T10:31:36;96559.69;;;3.93;100.00
19023;BME280;35226;48.606;8.858;2023-03-01T10:34:12;96563.56;;;4.09;100.00
19023;BME280;35226;48.606;8.858;2023-03-01T10:36:39;96556.88;;;4.25;97.89
19023;BME280;35226;48.606;8.858;2023-03-01T10:39:26;96557.63;;;4.36;95.60
19023;BME280;35226;48.606;8.858;2023-03-01T10:47:22;96548.84;;;4.73;90.66
19023;BME280;35226;48.606;8.858;2023-03-01T10:50:03;96552.25;;;4.95;91.10
19023;BME280;35226;48.606;8.858;2023-03-01T10:52:33;96550.69;;;4.90;90.42
19023;BME280;35226;48.606;8.858;2023-03-01T10:55:03;96549.06;;;5.00;87.21
19023;BME280;35226;48.606;8.858;2023-03-01T10:57:35;96541.88;;;5.27;91.29
19023;BME280;35226;48.606;8.858;2023-03-01T11:00:25;96541.41;;;5.36;86.26
19023;BME280;35226;48.606;8.858;2023-03-01T11:03:03;96536.97;;;5.52;84.64
19023;BME280;35226;48.606;8.858;2023-03-01T11:05:29;96541.16;;;5.16;80.33
19023;BME280;35226;48.606;8.858;2023-03-01T11:07:57;96536.75;;;5.29;83.62
19023;BME280;35226;48.606;8.858;2023-03-01T11:10:34;96524.75;;;5.61;84.76
19023;BME280;35226;48.606;8.858;2023-03-01T11:13:07;96522.69;;;5.72;81.01
19023;BME280;35226;48.606;8.858;2023-03-01T11:15:34;96521.03;;;5.81;77.69
19023;BME280;35226;48.606;8.858;2023-03-01T11:18:00;96511.03;;;5.61;76.80
19023;BME280;35226;48.606;8.858;2023-03-01T11:20:33;96514.97;;;6.04;80.89
19023;BME280;35226;48.606;8.858;2023-03-01T11:23:04;96504.50;;;5.92;76.20
19023;BME280;35226;48.606;8.858;2023-03-01T11:25:42;96490.16;;;6.15;76.71
19023;BME280;35226;48.606;8.858;2023-03-01T11:28:12;96490.97;;;6.46;73.88
19023;BME280;35226;48.606;8.858;2023-03-01T11:30:50;96493.41;;;6.37;70.72
19023;BME280;35226;48.606;8.858;2023-03-01T11:36:35;96479.53;;;6.78;67.78
19023;BME280;35226;48.606;8.858;2023-03-01T11:41:41;96471.81;;;6.69;68.12
19023;BME280;35226;48.606;8.858;2023-03-01T11:44:13;96467.16;;;6.93;68.50
19023;BME280;35226;48.606;8.858;2023-03-01T12:03:22;96444.31;;;7.23;61.90
19023;BME280;35226;48.606;8.858;2023-03-01T12:06:12;96431.22;;;7.54;61.07
19023;BME280;35226;48.606;8.858;2023-03-01T12:08:42;96429.19;;;7.58;58.83
19023;BME280;35226;48.606;8.858;2023-03-01T12:20:42;96416.16;;;7.38;56.99
19023;BME280;35226;48.606;8.858;2023-03-01T12:31:38;96402.97;;;8.12;55.52
19023;BME280;35226;48.606;8.858;2023-03-01T12:47:52;96388.28;;;8.39;53.09
19023;BME280;35226;48.606;8.858;2023-03-01T12:50:24;96367.81;;;8.40;52.18
19023;BME280;35226;48.606;8.858;2023-03-01T12:52:53;96360.16;;;8.31;51.90
19023;BME280;35226;48.606;8.858;2023-03-01T12:55:31;96360.81;;;8.35;52.75
19023;BME280;35226;48.606;8.858;2023-03-01T13:07:29;96339.28;;;8.30;51.94
19023;BME280;35226;48.606;8.858;2023-03-01T13:12:50;96343.44;;;8.02;52.74
19023;BME280;35226;48.606;8.858;2023-03-01T13:20:56;96343.47;;;8.18;52.16
19023;BME280;35226;48.606;8.858;2023-03-01T13:23:44;96336.41;;;8.53;53.07
19023;BME280;35226;48.606;8.858;2023-03-01T13:26:17;96339.88;;;8.74;51.26
19023;BME280;35226;48.606;8.858;2023-03-01T13:28:57;96335.13;;;8.74;51.85
19023;BME280;35226;48.606;8.858;2023-03-01T13:33:52;96341.16;;;9.02;51.96
19023;BME280;35226;48.606;8.858;2023-03-01T13:38:57;96327.47;;;8.66;50.71
19023;BME280;35226;48.606;8.858;2023-03-01T13:49:56;96323.78;;;8.72;50.66
19023;BME280;35226;48.606;8.858;2023-03-01T13:55:03;96325.56;;;8.63;50.65
19023;BME280;35226;48.606;8.858;2023-03-01T13:57:34;96331.09;;;8.79;50.63
19023;BME280;35226;48.606;8.858;2023-03-01T14:00:03;96322.19;;;9.20;49.87
19023;BME280;35226;48.606;8.858;2023-03-01T14:02:30;96321.47;;;9.32;49.26
19023;BME280;35226;48.606;8.858;2023-03-01T14:05:00;96324.19;;;9.19;48.72
19023;BME280;35226;48.606;8.858;2023-03-01T14:07:27;96323.09;;;8.84;48.88
19023;BME280;35226;48.606;8.858;2023-03-01T14:10:02;96309.50;;;8.09;50.82
19023;BME280;35226;48.606;8.858;2023-03-01T14:13:09;96306.84;;;7.86;51.74
19023;BME280;35226;48.606;8.858;2023-03-01T14:16:07;96307.00;;;8.67;51.95
19023;BME280;35226;48.606;8.858;2023-03-01T14:21:17;96309.78;;;9.12;49.11
19023;BME280;35226;48.606;8.858;2023-03-01T14:23:43;96311.34;;;9.13;49.13
19023;BME280;35226;48.606;8.858;2023-03-01T14:26:09;96321.78;;;9.05;49.70
19023;BME280;35226;48.606;8.858;2023-03-01T14:28:38;96321.47;;;8.87;49.59
19023;BME280;35226;48.606;8.858;2023-03-01T14:33:55;96329.72;;;8.87;50.40
19023;BME280;35226;48.606;8.858;2023-03-01T14:36:27;96327.66;;;8.75;51.57
19023;BME280;35226;48.606;8.858;2023-03-01T14:38:53;96336.22;;;8.44;51.57
19023;BME280;35226;48.606;8.858;2023-03-01T14:41:24;96343.00;;;7.84;52.80
19023;BME280;35226;48.606;8.858;2023-03-01T14:43:53;96333.97;;;8.03;53.53
19023;BME280;35226;48.606;8.858;2023-03-01T14:46:26;96339.53;;;7.44;55.65
19023;BME280;35226;48.606;8.858;2023-03-01T14:49:04;96342.13;;;7.71;55.78
19023;BME280;35226;48.606;8.858;2023-03-01T14:51:36;96350.59;;;7.17;57.41
19023;BME280;35226;48.606;8.858;2023-03-01T14:54:11;96346.00;;;7.11;59.41
19023;BME280;35226;48.606;8.858;2023-03-01T14:56:46;96344.03;;;6.88;61.63
19023;BME280;35226;48.606;8.858;2023-03-01T14:59:11;96354.56;;;6.93;62.36
19023;BME280;35226;48.606;8.858;2023-03-01T15:01:37;96337.84;;;6.34;63.24
19023;BME280;35226;48.606;8.858;2023-03-01T15:04:04;96350.13;;;6.25;67.69
19023;BME280;35226;48.606;8.858;2023-03-01T15:06:31;96348.16;;;6.26;67.36
19023;BME280;35226;48.606;8.858;2023-03-01T15:08:57;96339.34;;;6.38;67.28
19023;BME280;35226;48.606;8.858;2023-03-01T15:11:31;96343.38;;;6.30;68.08
19023;BME280;35226;48.606;8.858;2023-03-01T15:13:57;96334.16;;;6.44;67.88
19023;BME280;35226;48.606;8.858;2023-03-01T15:16:30;96335.00;;;6.41;67.60